Spillimacheen, Canada
Current Conditions -  °F | °C
As of 5:00 PM on Monday 22 Dec 2014 (Local Time) from CYGE Reporting Station
Haze Haze  
Wind Chill: 30°   Ceiling: 5500
Heat Index: 30°   Visibility: 3mi
Dew Point: 28°   Wind: 3mph
Humidity: 93%   Direction: 170°S
Pressure: 30.18"   Gusts: NA
Location:  50.9°N, 116.37°W
Report Text: CYGE 230000Z 17003KT 110V190 3SM BR OVC055 M01/M02 A3018 RMK FG4SC4 FG ON RWY LAST OBS/NEXT 231400Z SLP253
Loading
Personal Weather Stations






























Interactive Weather Map New forecast layout! Learn more

10-Day Weather Forecast

Advertisements
Track Severe Weather on mobile